createdAt,value
2023-03-29T00:00:24.065Z,4.27
2023-03-29T00:02:53.391Z,2.27
2023-03-29T00:05:25.653Z,2.07
2023-03-29T00:07:54.509Z,4.43
2023-03-29T00:10:24.973Z,1.30
2023-03-29T00:12:53.493Z,0.80
2023-03-29T00:15:23.861Z,3.70
2023-03-29T00:17:53.015Z,1.00
2023-03-29T00:20:21.608Z,3.67
2023-03-29T00:22:50.421Z,3.30
2023-03-29T00:25:19.234Z,1.53
2023-03-29T00:27:49.249Z,1.37
2023-03-29T00:30:20.842Z,1.50
2023-03-29T00:32:49.511Z,1.33
2023-03-29T00:35:18.303Z,2.50
2023-03-29T00:37:51.060Z,1.20
2023-03-29T00:40:19.928Z,1.80
2023-03-29T00:42:50.142Z,1.13
2023-03-29T00:45:20.100Z,1.27
2023-03-29T00:47:51.405Z,2.60
2023-03-29T00:50:22.604Z,1.47
2023-03-29T00:52:57.504Z,2.10
2023-03-29T00:55:28.339Z,2.93
2023-03-29T00:58:01.092Z,1.87
2023-03-29T01:00:33.372Z,1.87
2023-03-29T01:03:03.713Z,2.33
2023-03-29T01:05:35.535Z,2.40
2023-03-29T01:08:06.928Z,1.10
2023-03-29T01:10:38.826Z,1.73
2023-03-29T01:13:12.966Z,0.77
2023-03-29T01:15:43.630Z,1.87
2023-03-29T01:18:12.308Z,1.47
2023-03-29T01:20:49.352Z,2.10
2023-03-29T01:23:38.344Z,2.40
2023-03-29T01:26:16.215Z,2.90
2023-03-29T01:28:52.219Z,1.60
2023-03-29T01:31:24.760Z,1.47
2023-03-29T01:33:57.086Z,1.17
2023-03-29T01:36:28.518Z,3.00
2023-03-29T01:39:05.058Z,1.87
2023-03-29T01:41:42.684Z,3.03
2023-03-29T01:44:15.487Z,2.83
2023-03-29T01:46:47.681Z,3.00
2023-03-29T01:49:20.850Z,1.30
2023-03-29T01:51:53.807Z,2.20
2023-03-29T01:54:26.734Z,5.90
2023-03-29T01:56:55.434Z,1.43
2023-03-29T01:59:31.270Z,7.00
2023-03-29T02:02:00.513Z,7.33
2023-03-29T02:04:31.961Z,3.20
2023-03-29T02:07:01.842Z,1.30
2023-03-29T02:09:31.763Z,1.93
2023-03-29T02:12:02.361Z,2.00
2023-03-29T02:14:32.750Z,4.33
2023-03-29T02:17:19.872Z,1.37
2023-03-29T02:19:50.735Z,3.93
2023-03-29T02:22:25.181Z,2.30
2023-03-29T02:24:56.787Z,90.77
2023-03-29T02:27:27.559Z,82.17
2023-03-29T02:29:58.102Z,46.77
2023-03-29T02:32:29.352Z,21.10
2023-03-29T02:35:01.639Z,4.37
2023-03-29T02:37:31.540Z,4.10
2023-03-29T02:40:01.034Z,3.57
2023-03-29T02:42:31.092Z,2.20
2023-03-29T02:45:02.046Z,1.83
2023-03-29T02:47:34.139Z,2.90
2023-03-29T02:50:03.126Z,2.90
2023-03-29T02:52:36.718Z,6.33
2023-03-29T02:55:07.101Z,2.60
2023-03-29T02:57:38.443Z,4.00
2023-03-29T03:00:10.715Z,2.23
2023-03-29T03:02:39.700Z,5.13
2023-03-29T03:05:58.018Z,3.13
2023-03-29T03:08:53.126Z,4.13
2023-03-29T03:11:21.908Z,3.00
2023-03-29T03:13:50.673Z,6.23
2023-03-29T03:16:20.926Z,2.23
2023-03-29T03:18:51.419Z,4.10
2023-03-29T03:21:20.698Z,1.70
2023-03-29T03:23:49.976Z,2.23
2023-03-29T03:26:19.193Z,2.30
2023-03-29T03:28:48.489Z,3.27
2023-03-29T03:31:17.944Z,1.70
2023-03-29T03:33:48.437Z,2.90
2023-03-29T03:36:16.777Z,4.23
2023-03-29T03:38:45.416Z,5.20
2023-03-29T03:41:13.987Z,2.20
2023-03-29T03:43:49.531Z,2.67
2023-03-29T03:46:18.391Z,5.70
2023-03-29T03:48:49.255Z,2.37
2023-03-29T03:51:17.935Z,3.30
2023-03-29T03:53:46.886Z,1.33
2023-03-29T03:56:16.559Z,4.47
2023-03-29T03:58:45.217Z,10.37
2023-03-29T04:01:19.421Z,5.90
2023-03-29T04:03:49.958Z,6.67
2023-03-29T04:06:44.335Z,2.60
2023-03-29T04:09:13.360Z,2.20
2023-03-29T04:11:41.641Z,3.20
2023-03-29T04:14:10.726Z,2.67
2023-03-29T04:16:39.201Z,5.07
2023-03-29T04:19:09.491Z,7.27
2023-03-29T04:21:38.264Z,2.10
2023-03-29T04:24:07.278Z,2.73
2023-03-29T04:26:36.255Z,4.17
2023-03-29T04:29:06.433Z,5.33
2023-03-29T04:31:35.672Z,3.33
2023-03-29T04:34:04.696Z,3.10
2023-03-29T04:36:34.833Z,3.10
2023-03-29T04:39:04.360Z,9.43
2023-03-29T04:41:51.673Z,3.93
2023-03-29T04:44:20.226Z,3.23
2023-03-29T04:46:48.838Z,1.63
2023-03-29T04:49:18.015Z,5.40
2023-03-29T04:51:47.898Z,3.33
2023-03-29T04:54:16.865Z,16.10
2023-03-29T04:56:45.462Z,2.77
2023-03-29T04:59:17.613Z,6.10
2023-03-29T05:01:46.471Z,6.47
2023-03-29T05:04:24.881Z,5.33
2023-03-29T05:06:57.736Z,6.70
2023-03-29T05:09:27.212Z,6.10
2023-03-29T05:11:55.902Z,4.10
2023-03-29T05:14:24.901Z,3.30
2023-03-29T05:16:53.665Z,4.10
2023-03-29T05:19:24.727Z,3.57
2023-03-29T05:21:54.659Z,3.50
2023-03-29T05:24:23.377Z,5.57
2023-03-29T05:26:53.088Z,7.70
2023-03-29T05:29:24.901Z,7.03
2023-03-29T05:31:54.349Z,17.63
2023-03-29T05:34:23.063Z,3.30
2023-03-29T05:36:52.125Z,5.03
2023-03-29T05:39:23.613Z,9.77
2023-03-29T05:41:52.183Z,10.47
2023-03-29T05:44:20.921Z,9.43
2023-03-29T05:46:49.466Z,13.50
2023-03-29T05:49:18.044Z,5.30
2023-03-29T05:51:46.912Z,4.63
2023-03-29T05:54:16.608Z,4.43
2023-03-29T05:56:47.968Z,9.00
2023-03-29T05:59:18.498Z,6.37
2023-03-29T06:01:48.156Z,6.60
2023-03-29T06:04:24.640Z,7.77
2023-03-29T06:06:53.457Z,5.40
2023-03-29T06:09:22.245Z,5.53
2023-03-29T06:11:52.556Z,7.23
2023-03-29T06:14:23.397Z,8.40
2023-03-29T06:16:52.481Z,5.23
2023-03-29T06:19:22.952Z,6.77
2023-03-29T06:21:53.248Z,4.40
2023-03-29T06:24:21.962Z,7.70
2023-03-29T06:26:52.611Z,7.50
2023-03-29T06:29:21.320Z,3.77
2023-03-29T06:31:55.534Z,2.93
2023-03-29T06:34:24.469Z,4.27
2023-03-29T06:36:53.186Z,3.90
2023-03-29T06:39:21.627Z,4.00
2023-03-29T06:41:51.666Z,3.70
2023-03-29T06:44:20.133Z,1.73
2023-03-29T06:46:48.909Z,1.53
2023-03-29T06:49:17.510Z,3.53
2023-03-29T06:51:46.503Z,4.23
2023-03-29T06:54:15.141Z,4.40
2023-03-29T06:56:43.755Z,3.23
2023-03-29T06:59:13.845Z,9.37
2023-03-29T07:01:43.066Z,4.13
2023-03-29T07:04:14.306Z,8.03
2023-03-29T07:06:48.481Z,5.70
2023-03-29T07:09:19.444Z,5.90
2023-03-29T07:11:51.360Z,6.23
2023-03-29T07:14:21.576Z,7.40
2023-03-29T07:16:52.158Z,8.97
2023-03-29T07:19:26.008Z,3.17
2023-03-29T07:21:55.218Z,1.53
2023-03-29T07:24:24.045Z,2.40
2023-03-29T07:27:03.334Z,2.47
2023-03-29T07:29:34.542Z,2.53
2023-03-29T07:32:02.992Z,7.23
2023-03-29T07:34:32.856Z,1.70
2023-03-29T07:37:01.771Z,3.13
2023-03-29T07:39:31.232Z,1.63
2023-03-29T07:42:01.091Z,2.27
2023-03-29T07:44:30.126Z,1.57
2023-03-29T07:47:00.161Z,2.37
2023-03-29T07:49:29.338Z,1.83
2023-03-29T07:51:58.196Z,4.93
2023-03-29T07:54:27.192Z,2.53
2023-03-29T07:56:56.274Z,1.50
2023-03-29T07:59:25.088Z,2.53
2023-03-29T08:01:53.795Z,1.60
2023-03-29T08:04:24.125Z,1.50
2023-03-29T08:06:54.495Z,3.70
2023-03-29T08:09:23.280Z,3.10
2023-03-29T08:11:52.083Z,4.20
2023-03-29T08:14:21.970Z,2.07
2023-03-29T08:16:51.680Z,1.63
2023-03-29T08:19:20.207Z,1.50
2023-03-29T08:21:50.237Z,3.47
2023-03-29T08:24:20.926Z,1.20
2023-03-29T08:26:50.377Z,1.47
2023-03-29T08:29:22.557Z,3.27
2023-03-29T08:31:51.372Z,1.23
2023-03-29T08:34:32.100Z,1.37
2023-03-29T08:37:02.106Z,1.03
2023-03-29T08:39:31.985Z,1.67
2023-03-29T08:42:13.647Z,1.17
2023-03-29T08:44:51.904Z,3.57
2023-03-29T08:47:23.340Z,0.77
2023-03-29T08:49:54.891Z,1.90
2023-03-29T08:52:35.135Z,2.73
2023-03-29T08:55:05.947Z,1.73
2023-03-29T08:57:37.234Z,0.90
2023-03-29T09:00:08.104Z,2.30
2023-03-29T09:02:39.309Z,2.37
2023-03-29T09:05:20.713Z,3.70
2023-03-29T09:07:50.872Z,1.77
2023-03-29T09:10:20.045Z,1.70
2023-03-29T09:12:58.954Z,1.23
2023-03-29T09:15:30.576Z,2.00
2023-03-29T09:18:23.342Z,1.47
2023-03-29T09:20:56.007Z,1.60
2023-03-29T09:23:40.248Z,1.87
2023-03-29T09:26:14.182Z,1.97
2023-03-29T09:28:48.534Z,1.60
2023-03-29T09:31:23.290Z,1.43
2023-03-29T09:33:56.199Z,2.23
2023-03-29T09:36:26.837Z,3.20
2023-03-29T09:38:57.289Z,1.10
2023-03-29T09:41:30.660Z,0.87
2023-03-29T09:44:02.158Z,2.47
2023-03-29T09:46:37.920Z,1.50
2023-03-29T09:49:08.732Z,1.33
2023-03-29T09:51:37.719Z,1.00
2023-03-29T09:54:08.037Z,1.37
2023-03-29T09:56:36.638Z,1.20
2023-03-29T09:59:07.727Z,1.33
2023-03-29T10:01:39.916Z,0.80
2023-03-29T10:04:09.989Z,1.10
2023-03-29T10:06:39.645Z,1.33
2023-03-29T10:09:16.739Z,1.83
2023-03-29T10:11:51.850Z,1.27
2023-03-29T10:14:22.703Z,1.73
2023-03-29T10:16:57.423Z,1.33
2023-03-29T10:19:30.543Z,1.37
2023-03-29T10:22:03.033Z,1.10
2023-03-29T10:24:33.512Z,1.70
2023-03-29T10:27:05.034Z,1.23
2023-03-29T10:29:37.950Z,3.30
2023-03-29T10:32:16.730Z,1.80
2023-03-29T10:34:47.060Z,1.20
2023-03-29T10:37:16.928Z,1.23
2023-03-29T10:39:47.769Z,2.67
2023-03-29T10:42:18.401Z,2.33
2023-03-29T10:44:57.805Z,1.43
2023-03-29T10:47:27.328Z,2.50
2023-03-29T10:49:59.400Z,1.17
2023-03-29T10:52:28.573Z,5.37
2023-03-29T10:55:00.319Z,5.47
2023-03-29T10:57:35.523Z,3.70
2023-03-29T11:00:09.740Z,1.70
2023-03-29T11:03:10.454Z,1.40
2023-03-29T11:05:43.304Z,0.93
2023-03-29T11:08:35.768Z,1.57
2023-03-29T11:11:17.824Z,1.87
2023-03-29T11:13:50.688Z,1.20
2023-03-29T11:16:26.059Z,1.80
2023-03-29T11:19:07.217Z,1.73
2023-03-29T11:21:41.104Z,1.43
2023-03-29T11:24:29.795Z,2.90
2023-03-29T11:27:12.471Z,2.77
2023-03-29T11:29:45.896Z,1.63
2023-03-29T11:32:17.182Z,1.40
2023-03-29T11:34:57.588Z,1.30
2023-03-29T11:37:31.266Z,1.60
2023-03-29T11:40:08.213Z,2.37
2023-03-29T11:42:42.101Z,2.63
2023-03-29T11:45:15.330Z,1.30
2023-03-29T11:47:45.759Z,1.80
2023-03-29T11:50:19.750Z,1.43
2023-03-29T11:52:54.790Z,1.67
2023-03-29T11:55:26.338Z,1.40
2023-03-29T11:58:00.228Z,1.23
2023-03-29T12:00:32.232Z,1.13
2023-03-29T12:03:05.359Z,1.67
2023-03-29T12:05:36.841Z,2.70
2023-03-29T12:08:07.230Z,1.10
2023-03-29T12:10:38.165Z,4.13
2023-03-29T12:13:12.903Z,2.30
2023-03-29T12:15:48.268Z,1.33
2023-03-29T12:18:20.150Z,1.60
2023-03-29T12:20:54.174Z,1.47
2023-03-29T12:23:23.179Z,2.60
2023-03-29T12:25:55.697Z,1.40
2023-03-29T12:28:40.212Z,1.60
2023-03-29T12:31:15.657Z,1.20
2023-03-29T12:34:38.810Z,1.23
2023-03-29T12:37:19.560Z,1.30
2023-03-29T12:39:48.979Z,1.67
2023-03-29T12:42:19.171Z,3.97
2023-03-29T12:44:52.126Z,5.10
2023-03-29T12:47:23.669Z,1.57
2023-03-29T12:49:57.097Z,2.07
2023-03-29T12:52:29.315Z,1.70
2023-03-29T12:55:00.522Z,1.40
2023-03-29T12:57:40.221Z,2.03
2023-03-29T13:00:23.893Z,3.03
2023-03-29T13:03:05.608Z,0.93
2023-03-29T13:05:36.540Z,2.53
2023-03-29T13:08:23.834Z,1.77
2023-03-29T13:10:56.527Z,1.50
2023-03-29T13:13:28.863Z,2.30
2023-03-29T13:16:11.642Z,2.90
2023-03-29T13:18:51.914Z,9.67
2023-03-29T13:21:24.911Z,8.70
2023-03-29T13:24:01.857Z,5.17
2023-03-29T13:26:38.682Z,4.13
2023-03-29T13:29:18.587Z,6.23
2023-03-29T13:31:54.610Z,2.30
2023-03-29T13:34:31.877Z,2.17
2023-03-29T13:37:06.238Z,2.13
2023-03-29T13:39:40.030Z,1.83
2023-03-29T13:42:19.968Z,2.07
2023-03-29T13:44:50.076Z,3.60
2023-03-29T13:47:48.864Z,3.10
2023-03-29T13:50:38.769Z,1.80
2023-03-29T13:53:12.447Z,2.13
2023-03-29T13:55:47.499Z,2.27
2023-03-29T13:58:25.448Z,13.50
2023-03-29T14:00:56.958Z,4.97
2023-03-29T14:03:30.094Z,2.53
2023-03-29T14:06:03.214Z,3.20
2023-03-29T14:08:34.706Z,3.00
2023-03-29T14:11:07.200Z,3.77
2023-03-29T14:13:36.715Z,3.23
2023-03-29T14:16:11.931Z,2.97
2023-03-29T14:18:44.783Z,3.60
2023-03-29T14:21:14.952Z,2.80
2023-03-29T14:23:46.385Z,2.20
2023-03-29T14:26:18.767Z,2.50
2023-03-29T14:28:49.227Z,1.60
2023-03-29T14:31:22.364Z,6.20
2023-03-29T14:33:56.046Z,1.70
2023-03-29T14:36:25.852Z,2.70
2023-03-29T14:38:59.958Z,2.27
2023-03-29T14:41:37.856Z,4.60
2023-03-29T14:44:08.311Z,7.83
2023-03-29T14:46:37.565Z,1.77
2023-03-29T14:49:07.893Z,3.03
2023-03-29T14:51:37.119Z,1.97
2023-03-29T14:54:06.117Z,3.27
2023-03-29T14:56:35.158Z,3.03
2023-03-29T14:59:05.277Z,2.40
2023-03-29T15:01:34.105Z,5.50
2023-03-29T15:04:09.373Z,1.60
2023-03-29T15:06:42.453Z,5.13
2023-03-29T15:09:16.378Z,2.07
2023-03-29T15:11:52.744Z,4.50
2023-03-29T15:14:22.552Z,2.37
2023-03-29T15:16:52.930Z,9.60
2023-03-29T15:19:23.072Z,2.77
2023-03-29T15:22:10.238Z,6.07
2023-03-29T15:24:44.139Z,3.30
2023-03-29T15:27:18.565Z,7.70
2023-03-29T15:29:48.625Z,6.20
2023-03-29T15:32:24.215Z,3.10
2023-03-29T15:35:02.474Z,2.60
2023-03-29T15:37:38.034Z,5.23
2023-03-29T15:40:09.934Z,3.80
2023-03-29T15:42:38.899Z,4.37
2023-03-29T15:45:16.795Z,4.07
2023-03-29T15:47:46.056Z,5.63
2023-03-29T15:50:15.829Z,5.60
2023-03-29T15:52:46.211Z,3.63
2023-03-29T15:55:14.551Z,2.63
2023-03-29T15:57:46.242Z,3.77
2023-03-29T16:00:16.743Z,4.30
2023-03-29T16:02:45.638Z,3.20
2023-03-29T16:05:14.618Z,6.13
2023-03-29T16:07:43.397Z,4.60
2023-03-29T16:10:16.410Z,4.10
2023-03-29T16:12:45.811Z,5.67
2023-03-29T16:15:19.322Z,4.47
2023-03-29T16:17:48.264Z,6.30
2023-03-29T16:20:20.244Z,5.87
2023-03-29T16:22:49.171Z,3.73
2023-03-29T16:25:22.897Z,3.47
2023-03-29T16:27:52.754Z,6.63
2023-03-29T16:30:21.809Z,7.47
2023-03-29T16:32:50.589Z,10.50
2023-03-29T16:35:23.464Z,5.50
2023-03-29T16:37:52.259Z,9.10
2023-03-29T16:40:22.512Z,5.20
2023-03-29T16:42:55.243Z,9.47
2023-03-29T16:45:24.212Z,5.73
2023-03-29T16:47:52.979Z,6.00
2023-03-29T16:50:22.156Z,5.17
2023-03-29T16:52:52.998Z,7.43
2023-03-29T16:55:24.870Z,7.93
2023-03-29T16:57:54.284Z,5.70
2023-03-29T17:00:25.880Z,4.80
2023-03-29T17:02:54.578Z,6.67
2023-03-29T17:05:23.382Z,3.50
2023-03-29T17:07:52.728Z,4.77
2023-03-29T17:10:32.225Z,3.40
2023-03-29T17:13:01.115Z,4.23
2023-03-29T17:15:31.843Z,3.60
2023-03-29T17:18:01.125Z,5.33
2023-03-29T17:20:30.006Z,6.70
2023-03-29T17:22:58.959Z,9.60
2023-03-29T17:25:27.579Z,7.40
2023-03-29T17:27:57.838Z,7.97
2023-03-29T17:30:26.316Z,5.43
2023-03-29T17:32:57.334Z,6.90
2023-03-29T17:35:26.089Z,7.20
2023-03-29T17:37:54.829Z,4.60
2023-03-29T17:40:23.977Z,6.73
2023-03-29T17:42:53.333Z,3.80
2023-03-29T17:45:26.653Z,3.40
2023-03-29T17:47:58.691Z,6.40
2023-03-29T17:50:27.588Z,4.13
2023-03-29T17:52:56.503Z,15.43
2023-03-29T17:55:25.320Z,9.67
2023-03-29T17:57:54.408Z,8.40
2023-03-29T18:00:23.526Z,8.93
2023-03-29T18:02:53.594Z,8.63
2023-03-29T18:05:22.060Z,6.27
2023-03-29T18:07:51.040Z,7.00
2023-03-29T18:10:19.817Z,5.40
2023-03-29T18:12:48.513Z,7.47
2023-03-29T18:15:17.434Z,6.07
2023-03-29T18:17:46.204Z,6.20
2023-03-29T18:20:17.347Z,7.73
2023-03-29T18:22:47.050Z,5.50
2023-03-29T18:25:18.530Z,7.47
2023-03-29T18:27:47.292Z,5.93
2023-03-29T18:30:16.969Z,4.87
2023-03-29T18:32:45.773Z,6.40
2023-03-29T18:35:16.897Z,5.07
2023-03-29T18:37:45.649Z,5.60
2023-03-29T18:40:16.196Z,8.13
2023-03-29T18:42:45.268Z,6.20
2023-03-29T18:45:14.227Z,6.83
2023-03-29T18:47:42.866Z,6.10
2023-03-29T18:50:13.528Z,7.77
2023-03-29T18:52:43.766Z,8.40
2023-03-29T18:55:20.336Z,8.20
2023-03-29T18:57:49.270Z,9.63
2023-03-29T19:00:18.898Z,7.63
2023-03-29T19:02:51.178Z,10.40
2023-03-29T19:05:20.211Z,5.80
2023-03-29T19:07:50.378Z,5.90
2023-03-29T19:10:19.618Z,6.00
2023-03-29T19:12:48.740Z,7.30
2023-03-29T19:15:18.054Z,5.83
2023-03-29T19:17:47.714Z,4.90
2023-03-29T19:20:16.890Z,4.50
2023-03-29T19:22:45.898Z,7.37
2023-03-29T19:25:16.131Z,5.40
2023-03-29T19:27:44.776Z,5.10
2023-03-29T19:30:14.529Z,4.00
2023-03-29T19:32:43.635Z,8.57
2023-03-29T19:35:15.502Z,9.63
2023-03-29T19:37:44.261Z,14.20
2023-03-29T19:40:13.861Z,7.47
2023-03-29T19:42:47.711Z,4.50
2023-03-29T19:45:16.944Z,8.60
2023-03-29T19:47:47.779Z,4.57
2023-03-29T19:50:16.871Z,5.63
2023-03-29T19:52:45.699Z,7.03
2023-03-29T19:55:14.327Z,6.50
2023-03-29T19:57:44.605Z,4.37
2023-03-29T20:00:15.221Z,3.80
2023-03-29T20:02:44.182Z,5.73
2023-03-29T20:05:14.201Z,7.10
2023-03-29T20:07:42.628Z,4.03
2023-03-29T20:10:11.644Z,2.90
2023-03-29T20:12:42.319Z,4.63
2023-03-29T20:15:13.468Z,2.70
2023-03-29T20:17:43.698Z,2.33
2023-03-29T20:20:14.237Z,3.67
2023-03-29T20:22:47.842Z,5.30
2023-03-29T20:25:18.602Z,10.53
2023-03-29T20:27:53.382Z,6.60
2023-03-29T20:30:23.999Z,5.57
2023-03-29T20:32:52.542Z,5.10
2023-03-29T20:35:21.472Z,8.00
2023-03-29T20:37:50.554Z,4.80
2023-03-29T20:40:21.160Z,3.73
2023-03-29T20:42:50.256Z,4.30
2023-03-29T20:45:21.414Z,2.60
2023-03-29T20:47:56.280Z,5.37
2023-03-29T20:50:27.553Z,1.97
2023-03-29T20:52:57.121Z,2.67
2023-03-29T20:55:25.663Z,3.20
2023-03-29T20:57:58.572Z,8.23
2023-03-29T21:00:27.492Z,5.63
2023-03-29T21:02:59.195Z,6.63
2023-03-29T21:05:28.539Z,2.40
2023-03-29T21:07:57.324Z,5.20
2023-03-29T21:10:27.744Z,1.60
2023-03-29T21:13:02.824Z,3.40
2023-03-29T21:15:33.953Z,3.43
2023-03-29T21:18:05.080Z,2.37
2023-03-29T21:20:33.748Z,1.70
2023-03-29T21:23:02.263Z,2.40
2023-03-29T21:25:30.926Z,2.17
2023-03-29T21:27:59.920Z,2.50
2023-03-29T21:30:30.753Z,8.70
2023-03-29T21:33:01.735Z,5.70
2023-03-29T21:35:33.508Z,3.27
2023-03-29T21:38:02.533Z,3.00
2023-03-29T21:40:31.225Z,3.60
2023-03-29T21:43:00.011Z,3.07
2023-03-29T21:45:28.692Z,4.77
2023-03-29T21:47:57.595Z,3.03
2023-03-29T21:50:26.607Z,4.53
2023-03-29T21:52:57.081Z,4.20
2023-03-29T21:55:25.457Z,3.10
2023-03-29T21:57:54.150Z,3.40
2023-03-29T22:00:22.768Z,3.60
2023-03-29T22:02:51.945Z,2.77
2023-03-29T22:05:20.905Z,4.13
2023-03-29T22:07:50.832Z,3.00
2023-03-29T22:10:23.220Z,6.10
2023-03-29T22:12:53.013Z,3.00
2023-03-29T22:15:22.171Z,2.23
2023-03-29T22:17:53.529Z,2.43
2023-03-29T22:20:22.566Z,3.00
2023-03-29T22:22:52.632Z,2.53
2023-03-29T22:25:25.321Z,2.40
2023-03-29T22:27:54.348Z,3.30
2023-03-29T22:30:23.349Z,4.20
2023-03-29T22:32:52.352Z,3.23
2023-03-29T22:35:21.117Z,3.00
2023-03-29T22:37:49.937Z,7.33
2023-03-29T22:40:18.923Z,6.93
2023-03-29T22:42:49.091Z,2.50
2023-03-29T22:45:17.855Z,4.50
2023-03-29T22:47:47.161Z,1.93
2023-03-29T22:50:15.762Z,3.27
2023-03-29T22:52:44.745Z,3.30
2023-03-29T22:55:13.271Z,3.77
2023-03-29T22:57:41.847Z,5.27
2023-03-29T23:00:13.460Z,4.73
2023-03-29T23:02:42.434Z,1.83
2023-03-29T23:05:17.404Z,3.03
2023-03-29T23:07:46.045Z,4.53
2023-03-29T23:10:15.097Z,2.43
2023-03-29T23:12:43.938Z,4.37
2023-03-29T23:15:14.748Z,17.27
2023-03-29T23:17:44.321Z,9.13
2023-03-29T23:20:14.183Z,13.30
2023-03-29T23:22:43.283Z,13.73
2023-03-29T23:25:12.320Z,9.87
2023-03-29T23:27:41.459Z,8.00
2023-03-29T23:30:12.089Z,9.70
2023-03-29T23:32:46.182Z,7.03
2023-03-29T23:35:17.059Z,11.20
2023-03-29T23:37:46.306Z,7.63
2023-03-29T23:40:16.443Z,12.33
2023-03-29T23:42:48.680Z,9.23
2023-03-29T23:45:18.682Z,11.73
2023-03-29T23:47:48.808Z,9.10
2023-03-29T23:50:17.280Z,8.10
2023-03-29T23:52:46.929Z,9.80
2023-03-29T23:55:15.773Z,5.43
2023-03-29T23:57:44.757Z,7.10
